Time;durP1;ratioP1;P1;durP2;ratioP2;P2;SDS_P1;SDS_P2;PMS_P1;PMS_P2;Temp;Humidity;BMP_temperature;BMP_pressure;BME280_temperature;BME280_humidity;BME280_pressure;Samples;Min_cycle;Max_cycle;Signal;HPM_P1;HPM_P2
2022/04/05 00:00:43;;;;;;;7.77;5.87;;;;;;;6.43;56.61;94737.97;4965494;28;20236;-64
2022/04/05 00:03:08;;;;;;;6.37;5.77;;;;;;;6.37;56.98;94731.50;4967544;28;20259;-67
2022/04/05 00:05:34;;;;;;;6.77;5.87;;;;;;;6.39;56.86;94724.34;4964150;28;20235;-65
2022/04/05 00:07:59;;;;;;;6.73;6.13;;;;;;;6.38;56.95;94733.13;4965320;28;20208;-61
2022/04/05 00:10:25;;;;;;;8.20;6.70;;;;;;;6.29;57.52;94720.88;4964769;28;20292;-65
2022/04/05 00:12:51;;;;;;;7.50;6.60;;;;;;;6.33;57.63;94724.06;4965951;28;20243;-66
2022/04/05 00:15:16;;;;;;;8.53;7.20;;;;;;;6.37;57.09;94717.63;4962726;28;20232;-65
2022/04/05 00:17:42;;;;;;;9.20;7.20;;;;;;;6.36;57.16;94721.16;4956883;28;20220;-64
2022/04/05 00:20:08;;;;;;;9.60;7.10;;;;;;;6.35;57.36;94725.56;4958435;28;20205;-64
2022/04/05 00:22:34;;;;;;;9.27;7.37;;;;;;;6.38;56.92;94724.47;4966947;28;20204;-64
2022/04/05 00:25:00;;;;;;;9.00;8.10;;;;;;;6.42;56.76;94722.44;4964873;28;20241;-64
2022/04/05 00:27:26;;;;;;;8.03;7.23;;;;;;;6.44;56.75;94713.50;4958420;28;20251;-63
2022/04/05 00:29:51;;;;;;;9.43;7.10;;;;;;;6.44;56.65;94713.50;4962680;28;20224;-63
2022/04/05 00:32:16;;;;;;;13.17;8.17;;;;;;;6.30;57.27;94713.88;4961124;28;20292;-63
2022/04/05 00:34:42;;;;;;;10.20;7.47;;;;;;;6.22;57.14;94716.31;4963878;28;20272;-64
2022/04/05 00:37:08;;;;;;;11.87;8.17;;;;;;;6.19;57.42;94709.59;4965891;28;20285;-63
2022/04/05 00:39:34;;;;;;;8.90;7.63;;;;;;;6.12;57.39;94708.44;4967439;28;20224;-63
2022/04/05 00:41:59;;;;;;;9.37;7.70;;;;;;;6.12;58.00;94705.84;4964352;28;20232;-63
2022/04/05 00:44:25;;;;;;;9.23;7.10;;;;;;;6.03;58.34;94701.41;4962253;28;20255;-63
2022/04/05 00:46:52;;;;;;;8.73;7.67;;;;;;;6.09;58.18;94695.66;4965870;28;20408;-63
2022/04/05 00:49:30;;;;;;;8.30;7.50;;;;;;;6.17;57.94;94701.91;4962724;28;20313;-60
2022/04/05 00:51:59;;;;;;;8.53;7.67;;;;;;;6.08;58.24;94700.06;4960243;28;20302;-60
2022/04/05 00:54:26;;;;;;;12.73;8.20;;;;;;;6.05;58.40;94696.91;4963438;28;20313;-60
2022/04/05 00:56:56;;;;;;;10.23;7.47;;;;;;;5.93;59.20;94693.50;4960603;28;20242;-61
2022/04/05 00:59:21;;;;;;;8.80;7.80;;;;;;;5.94;58.78;94692.59;4974038;28;20209;-60
2022/04/05 01:01:47;;;;;;;10.50;8.10;;;;;;;5.89;58.98;94694.75;4961189;28;20245;-59
2022/04/05 01:04:13;;;;;;;10.73;8.07;;;;;;;5.97;58.83;94687.13;4964020;28;20270;-61
2022/04/05 01:06:39;;;;;;;9.93;8.20;;;;;;;6.04;58.82;94692.63;4962701;28;20225;-61
2022/04/05 01:09:08;;;;;;;9.20;8.27;;;;;;;5.92;59.04;94686.66;4956943;28;20235;-59
2022/04/05 01:11:33;;;;;;;9.93;8.30;;;;;;;6.00;58.68;94686.03;4972794;28;20413;-60
2022/04/05 01:13:59;;;;;;;13.03;8.20;;;;;;;5.94;59.21;94677.78;4960437;28;20367;-60
2022/04/05 01:16:24;;;;;;;9.20;8.33;;;;;;;6.00;59.22;94683.41;4967530;28;20235;-60
2022/04/05 01:18:50;;;;;;;8.67;7.83;;;;;;;6.07;58.66;94679.34;4964251;28;20449;-60
2022/04/05 01:21:17;;;;;;;10.47;7.87;;;;;;;6.05;58.77;94683.84;4963998;28;20244;-60
2022/04/05 01:24:19;;;;;;;8.93;8.03;;;;;;;5.94;59.33;94682.16;4945461;28;20391;-60
2022/04/05 01:26:47;;;;;;;9.37;8.13;;;;;;;5.91;59.48;94688.44;4941268;28;20766;-60
2022/04/05 01:29:14;;;;;;;11.03;8.87;;;;;;;6.01;59.46;94683.28;4953084;28;20204;-61
2022/04/05 01:31:44;;;;;;;11.67;8.70;;;;;;;6.00;59.08;94686.03;4962297;28;20201;-60
2022/04/05 01:34:10;;;;;;;10.13;8.97;;;;;;;5.97;59.34;94689.72;4959224;28;20324;-61
2022/04/05 01:36:57;;;;;;;11.63;8.10;;;;;;;6.00;59.41;94694.69;4960763;28;20219;-60
2022/04/05 01:39:25;;;;;;;13.03;8.30;;;;;;;6.04;59.04;94685.66;4957591;28;20283;-63
2022/04/05 01:41:53;;;;;;;13.00;8.47;;;;;;;6.00;59.55;94686.84;4952976;28;20228;-63
2022/04/05 01:44:19;;;;;;;11.03;8.67;;;;;;;6.01;59.31;94682.44;4945126;28;20310;-63
2022/04/05 01:46:44;;;;;;;11.60;8.77;;;;;;;5.97;59.58;94687.13;4961394;28;20251;-65
2022/04/05 01:49:13;;;;;;;9.60;8.60;;;;;;;5.99;59.62;94684.38;4959751;28;20227;-63
2022/04/05 01:51:39;;;;;;;11.30;8.30;;;;;;;5.80;59.94;94685.09;4966554;28;20235;-63
2022/04/05 01:54:09;;;;;;;10.53;8.90;;;;;;;5.72;59.98;94683.97;4962988;28;20220;-63
2022/04/05 01:56:47;;;;;;;10.87;8.80;;;;;;;5.80;59.56;94682.47;4970391;28;20232;-63
2022/04/05 01:59:15;;;;;;;10.80;9.20;;;;;;;5.78;59.59;94679.19;4955552;28;20298;-63
2022/04/05 02:01:41;;;;;;;11.30;8.93;;;;;;;5.75;59.51;94677.66;4958876;28;20220;-63
2022/04/05 02:04:10;;;;;;;10.07;8.50;;;;;;;5.80;59.55;94672.88;4956217;28;20243;-63
2022/04/05 02:06:36;;;;;;;10.80;8.57;;;;;;;5.69;59.76;94670.34;4960843;28;20355;-63
2022/04/05 02:09:02;;;;;;;11.97;9.47;;;;;;;5.62;59.99;94667.44;4965925;28;20307;-63
2022/04/05 02:11:28;;;;;;;12.83;9.47;;;;;;;5.49;60.37;94670.25;4964802;28;20220;-61
2022/04/05 02:13:53;;;;;;;10.63;8.97;;;;;;;5.49;60.24;94662.44;4956694;28;20207;-61
2022/04/05 02:16:19;;;;;;;9.97;8.37;;;;;;;5.47;60.36;94663.50;4966465;28;20244;-60
2022/04/05 02:18:44;;;;;;;9.40;8.07;;;;;;;5.43;60.18;94662.13;4962661;28;20224;-60
2022/04/05 02:21:11;;;;;;;10.30;7.93;;;;;;;5.42;60.60;94656.06;4961913;28;20306;-60
2022/04/05 02:23:36;;;;;;;9.33;8.43;;;;;;;5.37;60.38;94657.41;4965748;28;20231;-61
2022/04/05 02:26:01;;;;;;;8.63;7.73;;;;;;;5.35;60.38;94654.13;4966539;28;20240;-60
2022/04/05 02:28:27;;;;;;;10.00;7.17;;;;;;;5.26;60.27;94650.50;4964466;28;20276;-60
2022/04/05 02:30:53;;;;;;;10.77;7.83;;;;;;;5.18;60.98;94645.09;4954859;28;20224;-60
2022/04/05 02:33:18;;;;;;;15.43;7.77;;;;;;;5.16;61.09;94644.41;4954166;28;20225;-60
2022/04/05 02:35:44;;;;;;;9.40;7.10;;;;;;;5.22;60.43;94643.91;4963626;28;20217;-60
2022/04/05 02:38:10;;;;;;;8.13;6.90;;;;;;;5.20;60.42;94645.81;4958166;28;20215;-61
2022/04/05 02:40:36;;;;;;;7.10;6.27;;;;;;;5.23;60.41;94633.34;4992219;28;20296;-61
2022/04/05 02:43:03;;;;;;;8.43;6.70;;;;;;;5.22;60.06;94636.91;4966933;28;20373;-61
2022/04/05 02:45:29;;;;;;;8.07;6.20;;;;;;;5.26;59.89;94634.84;4962804;28;20240;-60
2022/04/05 02:47:56;;;;;;;7.67;6.83;;;;;;;5.27;59.97;94636.53;4971531;28;20227;-61
2022/04/05 02:50:22;;;;;;;7.53;6.73;;;;;;;5.26;60.44;94635.69;4953298;28;20216;-61
2022/04/05 02:52:48;;;;;;;9.00;6.40;;;;;;;5.29;59.80;94630.22;4956532;28;20216;-61
2022/04/05 02:55:15;;;;;;;8.40;6.73;;;;;;;5.34;59.94;94631.59;4956869;28;20236;-62
2022/04/05 02:57:42;;;;;;;8.87;6.40;;;;;;;5.40;59.34;94626.72;4961699;28;20224;-61
2022/04/05 03:00:08;;;;;;;8.23;6.30;;;;;;;5.37;59.41;94626.94;4958977;28;20228;-61
2022/04/05 03:02:35;;;;;;;9.23;7.20;;;;;;;5.38;59.36;94627.81;4978785;28;20239;-61
2022/04/05 03:05:01;;;;;;;9.53;7.23;;;;;;;5.42;59.49;94624.78;4963678;28;20225;-66
2022/04/05 03:07:28;;;;;;;10.40;7.07;;;;;;;5.25;59.51;94628.00;4958903;28;20232;-66
2022/04/05 03:09:53;;;;;;;7.47;6.40;;;;;;;5.16;60.06;94628.75;4963843;28;20247;-61
2022/04/05 03:12:19;;;;;;;8.07;6.80;;;;;;;5.14;60.63;94620.25;4947465;28;20231;-61
2022/04/05 03:14:45;;;;;;;7.60;6.63;;;;;;;5.05;61.25;94619.22;4953134;28;20234;-62
2022/04/05 03:17:11;;;;;;;8.80;7.10;;;;;;;5.02;61.16;94617.69;4956502;28;20274;-61
2022/04/05 03:19:37;;;;;;;8.53;7.03;;;;;;;5.06;61.03;94619.13;4962110;28;20212;-61
2022/04/05 03:22:05;;;;;;;8.27;7.47;;;;;;;5.13;60.78;94618.59;4961938;28;20232;-61
2022/04/05 03:24:31;;;;;;;8.30;6.87;;;;;;;5.07;61.12;94619.94;4961718;28;20291;-61
2022/04/05 03:26:57;;;;;;;8.40;7.23;;;;;;;5.02;61.33;94616.88;4959480;28;20323;-61
2022/04/05 03:29:22;;;;;;;11.03;7.63;;;;;;;5.06;61.13;94603.47;4957672;28;20323;-61
2022/04/05 03:31:48;;;;;;;10.50;7.90;;;;;;;4.97;61.29;94616.44;4964046;28;20290;-61
2022/04/05 03:34:14;;;;;;;8.87;7.57;;;;;;;4.93;61.84;94617.66;4996417;28;20272;-61
2022/04/05 03:36:42;;;;;;;9.10;7.77;;;;;;;4.92;62.14;94623.81;4956238;28;20264;-61
2022/04/05 03:39:07;;;;;;;9.83;8.40;;;;;;;5.00;61.75;94622.25;4958706;28;20268;-61
2022/04/05 03:41:33;;;;;;;10.47;9.30;;;;;;;4.82;61.93;94616.75;4959603;28;20220;-61
2022/04/05 03:43:58;;;;;;;14.70;9.53;;;;;;;4.77;62.28;94607.69;4955381;28;20232;-61
2022/04/05 03:46:24;;;;;;;12.40;9.27;;;;;;;4.61;62.93;94611.53;4955414;28;20240;-61
2022/04/05 03:48:49;;;;;;;11.97;9.13;;;;;;;4.73;62.57;94624.50;4962373;28;20235;-64
2022/04/05 03:51:14;;;;;;;13.10;9.37;;;;;;;4.59;63.12;94623.84;4963954;28;20246;-65
2022/04/05 03:53:40;;;;;;;12.97;10.60;;;;;;;4.69;62.64;94610.09;4965120;28;20228;-63
2022/04/05 03:56:05;;;;;;;12.30;10.07;;;;;;;4.62;63.10;94610.59;4965331;28;20299;-63
2022/04/05 03:58:31;;;;;;;12.47;10.17;;;;;;;4.61;63.46;94611.53;4964228;28;20323;-64
2022/04/05 04:00:56;;;;;;;12.53;10.13;;;;;;;4.48;63.60;94615.28;4964809;28;20239;-63
2022/04/05 04:03:22;;;;;;;12.90;10.40;;;;;;;4.46;63.58;94622.38;4963844;28;20228;-63
2022/04/05 04:05:47;;;;;;;15.40;10.30;;;;;;;4.51;63.49;94617.63;4962109;28;20224;-64
2022/04/05 04:08:13;;;;;;;12.90;10.70;;;;;;;4.50;63.60;94615.97;4962194;28;20239;-64
2022/04/05 04:10:38;;;;;;;11.70;9.47;;;;;;;4.36;63.50;94614.50;4959138;28;20201;-60
2022/04/05 04:13:04;;;;;;;13.27;9.03;;;;;;;4.45;63.05;94618.94;4957890;28;20315;-64
2022/04/05 04:15:29;;;;;;;19.17;9.57;;;;;;;4.49;62.65;94616.91;4960679;28;20232;-61
2022/04/05 04:17:55;;;;;;;14.47;8.93;;;;;;;4.57;61.93;94610.16;4969532;28;20232;-63
2022/04/05 04:20:20;;;;;;;10.63;8.70;;;;;;;4.47;62.01;94614.44;4959569;28;20212;-65
2022/04/05 04:22:46;;;;;;;13.17;9.00;;;;;;;4.47;62.08;94618.84;4964229;28;20207;-63
2022/04/05 04:25:11;;;;;;;13.20;8.90;;;;;;;4.52;62.26;94619.28;4959254;28;20235;-66
2022/04/05 04:27:37;;;;;;;12.40;9.53;;;;;;;4.41;62.57;94620.97;4965304;28;20263;-59
2022/04/05 04:30:03;;;;;;;10.70;9.20;;;;;;;4.63;61.56;94627.88;4956408;28;20291;-65
2022/04/05 04:32:29;;;;;;;12.27;9.90;;;;;;;4.58;61.92;94632.63;4959489;28;20235;-64
2022/04/05 04:34:55;;;;;;;11.77;10.47;;;;;;;4.53;62.65;94626.97;4966079;28;20205;-67
2022/04/05 04:37:20;;;;;;;12.83;10.30;;;;;;;4.56;62.38;94633.69;4963020;28;20228;-65
2022/04/05 04:39:46;;;;;;;14.50;10.67;;;;;;;4.52;62.55;94633.13;4953216;28;20232;-66
2022/04/05 04:42:12;;;;;;;13.93;11.40;;;;;;;4.27;63.27;94641.25;4978760;28;20228;-67
2022/04/05 04:44:38;;;;;;;12.63;11.30;;;;;;;4.34;63.39;94632.84;4969423;28;20236;-66
2022/04/05 04:47:04;;;;;;;12.03;10.83;;;;;;;4.42;62.75;94635.63;4968059;28;20605;-65
2022/04/05 04:49:29;;;;;;;15.33;10.90;;;;;;;4.58;62.05;94639.63;4968631;28;20266;-66
2022/04/05 04:51:55;;;;;;;16.47;11.20;;;;;;;4.68;61.83;94637.06;4994312;28;20235;-64
2022/04/05 04:54:20;;;;;;;16.37;10.80;;;;;;;4.66;62.16;94636.38;4964716;28;20379;-64
2022/04/05 04:56:46;;;;;;;14.97;11.43;;;;;;;4.71;61.83;94632.47;4957914;28;20220;-64
2022/04/05 04:59:11;;;;;;;11.97;10.77;;;;;;;4.53;62.84;94636.56;4957438;28;20220;-64
2022/04/05 05:01:37;;;;;;;15.70;10.67;;;;;;;4.64;61.93;94637.31;4958231;28;20212;-62
2022/04/05 05:04:02;;;;;;;16.83;10.43;;;;;;;4.64;62.59;94629.50;4966525;28;20235;-61
2022/04/05 05:06:28;;;;;;;13.60;10.97;;;;;;;4.69;61.70;94646.56;4990817;28;20314;-61
2022/04/05 05:08:53;;;;;;;14.40;10.63;;;;;;;4.59;62.06;94638.66;4955237;28;20243;-61
2022/04/05 05:11:19;;;;;;;13.53;9.90;;;;;;;4.56;62.03;94637.13;4962813;28;20263;-61
2022/04/05 05:13:44;;;;;;;16.90;10.07;;;;;;;4.47;62.42;94643.09;4958279;28;20208;-60
2022/04/05 05:16:09;;;;;;;15.27;9.80;;;;;;;4.70;61.77;94638.59;4958455;28;20247;-61
2022/04/05 05:18:37;;;;;;;16.70;10.23;;;;;;;4.57;62.05;94638.78;4963739;28;20235;-59
2022/04/05 05:21:03;;;;;;;16.80;11.07;;;;;;;4.74;61.75;94644.41;4945043;28;20239;-61
2022/04/05 05:23:30;;;;;;;15.53;10.63;;;;;;;4.70;61.37;94638.59;4961896;28;20225;-60
2022/04/05 05:25:55;;;;;;;14.27;9.63;;;;;;;4.89;61.31;94647.50;4944427;28;20316;-60
2022/04/05 05:28:22;;;;;;;15.13;10.50;;;;;;;4.95;60.76;94652.25;4936842;28;20252;-60
2022/04/05 05:30:47;;;;;;;12.87;9.67;;;;;;;4.87;60.56;94655.47;4936292;28;20229;-60
2022/04/05 05:33:13;;;;;;;19.37;11.27;;;;;;;4.86;60.88;94654.66;4938403;28;20234;-60
2022/04/05 05:35:38;;;;;;;14.43;10.60;;;;;;;4.81;61.23;94658.56;4943103;28;20221;-61
2022/04/05 05:38:04;;;;;;;15.27;10.60;;;;;;;4.80;61.24;94665.56;4945036;28;20205;-61
2022/04/05 05:40:29;;;;;;;16.30;11.97;;;;;;;4.85;61.60;94663.41;4942799;28;20217;-61
2022/04/05 05:42:57;;;;;;;16.10;11.40;;;;;;;4.80;61.47;94669.94;4923760;28;20271;-61
2022/04/05 05:45:23;;;;;;;15.50;10.63;;;;;;;4.84;61.35;94661.75;4943477;28;20408;-60
2022/04/05 05:47:49;;;;;;;13.47;11.10;;;;;;;4.87;61.11;94665.88;4943138;28;20224;-60
2022/04/05 05:50:15;;;;;;;17.63;10.90;;;;;;;4.82;61.47;94668.03;4943847;28;20209;-62
2022/04/05 05:52:42;;;;;;;14.23;10.87;;;;;;;4.97;60.76;94660.72;4936793;28;20205;-59
2022/04/05 05:55:10;;;;;;;14.00;11.80;;;;;;;5.07;59.92;94661.63;4944335;28;20225;-60
2022/04/05 05:57:36;;;;;;;15.93;11.47;;;;;;;5.20;59.92;94662.28;4937795;28;20231;-62
2022/04/05 06:00:07;;;;;;;16.13;11.30;;;;;;;5.17;60.03;94657.31;4934969;28;20327;-60
2022/04/05 06:02:42;;;;;;;13.80;11.40;;;;;;;5.29;58.99;94658.91;4933884;28;20244;-62
2022/04/05 06:05:08;;;;;;;13.60;10.90;;;;;;;5.37;58.88;94658.25;4933698;28;20216;-61
2022/04/05 06:07:34;;;;;;;12.80;11.07;;;;;;;5.48;58.55;94655.56;4942120;28;20201;-61
2022/04/05 06:10:05;;;;;;;13.47;11.90;;;;;;;5.57;58.31;94653.97;4939582;28;20229;-62
2022/04/05 06:12:30;;;;;;;15.30;12.33;;;;;;;5.64;58.08;94649.88;4933101;28;20233;-61
2022/04/05 06:14:56;;;;;;;11.97;10.67;;;;;;;5.63;58.21;94644.78;4937583;28;20228;-62
2022/04/05 06:17:21;;;;;;;14.40;11.40;;;;;;;5.68;57.71;94651.25;4939923;28;20228;-62
2022/04/05 06:19:47;;;;;;;10.63;9.23;;;;;;;5.77;57.74;94656.66;4962934;28;20225;-60
2022/04/05 06:22:13;;;;;;;14.30;10.70;;;;;;;5.80;57.65;94652.00;4941519;28;20244;-61
2022/04/05 06:24:39;;;;;;;17.77;11.47;;;;;;;5.94;57.37;94645.63;4943139;28;20221;-60
2022/04/05 06:27:05;;;;;;;15.87;11.03;;;;;;;6.00;56.69;94649.50;4990250;28;20258;-60
2022/04/05 06:29:31;;;;;;;12.87;9.80;;;;;;;6.12;56.40;94651.88;4965814;28;20221;-61
2022/04/05 06:31:57;;;;;;;11.80;9.40;;;;;;;6.10;56.32;94651.16;4961376;28;20200;-61
2022/04/05 06:34:22;;;;;;;11.93;9.73;;;;;;;6.11;56.88;94654.59;4957693;28;20290;-60
2022/04/05 06:36:48;;;;;;;11.27;10.13;;;;;;;6.29;56.50;94646.97;4960302;28;20224;-61
2022/04/05 06:39:13;;;;;;;18.00;11.37;;;;;;;6.39;55.53;94646.00;4960575;28;20224;-61
2022/04/05 06:41:39;;;;;;;16.80;10.33;;;;;;;6.30;56.01;94640.75;4959009;28;20286;-61
2022/04/05 06:44:06;;;;;;;13.37;10.67;;;;;;;6.31;56.30;94634.59;4963646;28;20231;-62
2022/04/05 06:46:31;;;;;;;11.50;10.30;;;;;;;6.55;55.84;94644.66;4955880;28;20216;-62
2022/04/05 06:48:57;;;;;;;13.07;10.33;;;;;;;6.52;56.03;94643.16;4953673;28;20216;-61
2022/04/05 06:51:24;;;;;;;11.67;9.83;;;;;;;6.46;56.17;94638.44;4953318;28;20239;-61
2022/04/05 06:53:50;;;;;;;10.30;9.03;;;;;;;6.47;56.26;94636.66;4954718;28;20248;-61
2022/04/05 06:56:16;;;;;;;10.67;9.40;;;;;;;6.60;56.44;94632.00;4949728;28;20598;-60
2022/04/05 06:58:41;;;;;;;10.40;9.37;;;;;;;6.58;56.67;94639.97;4951395;28;20296;-60
2022/04/05 07:01:07;;;;;;;10.53;9.53;;;;;;;6.72;56.17;94632.69;4951252;28;20315;-59
2022/04/05 07:03:32;;;;;;;13.40;9.60;;;;;;;6.83;55.60;94635.16;4952997;28;20232;-61
2022/04/05 07:05:58;;;;;;;10.37;9.37;;;;;;;6.83;56.13;94627.31;4953169;28;20225;-62
2022/04/05 07:08:23;;;;;;;12.20;8.63;;;;;;;6.98;55.71;94628.56;4952615;28;20274;-61
2022/04/05 07:10:51;;;;;;;10.03;8.37;;;;;;;7.10;55.28;94636.25;4954672;28;20205;-63
2022/04/05 07:13:16;;;;;;;14.47;9.80;;;;;;;7.18;54.81;94629.34;4960311;28;20279;-64
2022/04/05 07:15:42;;;;;;;10.10;8.57;;;;;;;7.05;55.42;94631.44;4959033;28;20236;-62
2022/04/05 07:18:07;;;;;;;12.47;8.40;;;;;;;7.14;54.66;94625.38;4952029;28;20232;-61
2022/04/05 07:20:37;;;;;;;14.93;8.53;;;;;;;7.25;54.53;94627.00;4959917;28;20228;-62
2022/04/05 07:23:03;;;;;;;9.67;8.67;;;;;;;7.38;53.45;94621.47;4963078;28;20242;-61
2022/04/05 07:25:29;;;;;;;9.23;7.80;;;;;;;7.39;53.39;94634.38;4961676;28;20231;-61
2022/04/05 07:27:55;;;;;;;13.97;9.33;;;;;;;7.38;54.21;94619.69;4952756;28;20238;-61
2022/04/05 07:30:21;;;;;;;10.63;8.83;;;;;;;7.53;53.56;94629.69;4961537;28;20259;-62
2022/04/05 07:32:47;;;;;;;12.80;8.40;;;;;;;7.65;52.95;94625.94;4954996;28;20234;-62
2022/04/05 07:35:14;;;;;;;13.87;9.10;;;;;;;7.71;53.17;94625.34;4986243;28;20204;-62
2022/04/05 07:37:40;;;;;;;12.13;9.47;;;;;;;7.83;53.12;94629.44;4962697;28;20204;-62
2022/04/05 07:40:10;;;;;;;10.07;8.10;;;;;;;7.94;52.39;94623.19;4958128;28;20287;-60
2022/04/05 07:42:37;;;;;;;11.43;9.17;;;;;;;8.04;52.05;94621.31;4987355;28;20236;-60
2022/04/05 07:45:04;;;;;;;12.03;9.10;;;;;;;8.09;52.35;94620.91;4957860;28;20239;-61
2022/04/05 07:47:30;;;;;;;11.10;8.37;;;;;;;8.14;51.20;94619.47;4957603;28;20299;-61
2022/04/05 07:49:55;;;;;;;10.27;8.33;;;;;;;8.09;51.77;94620.91;4955522;28;20212;-61
2022/04/05 07:52:20;;;;;;;11.33;8.13;;;;;;;8.21;51.43;94613.69;4955004;28;20275;-61
2022/04/05 07:54:46;;;;;;;11.67;8.60;;;;;;;8.30;50.96;94621.44;4960559;28;20224;-61
2022/04/05 07:57:13;;;;;;;12.80;8.63;;;;;;;8.30;51.01;94620.63;4952227;28;20233;-61
2022/04/05 07:59:39;;;;;;;10.13;8.07;;;;;;;8.43;50.31;94623.75;4960396;28;20224;-61
2022/04/05 08:02:05;;;;;;;10.77;8.70;;;;;;;8.41;50.69;94609.97;4952007;28;20211;-61
2022/04/05 08:04:31;;;;;;;12.60;9.83;;;;;;;8.55;50.74;94619.13;4961584;28;20217;-61
2022/04/05 08:06:56;;;;;;;12.03;9.53;;;;;;;8.55;50.12;94616.50;4962119;28;20231;-61
2022/04/05 08:09:22;;;;;;;10.37;8.90;;;;;;;8.55;50.47;94617.34;4958331;28;20232;-62
2022/04/05 08:11:48;;;;;;;12.27;9.70;;;;;;;8.73;49.12;94606.84;4962720;28;20232;-61
2022/04/05 08:14:13;;;;;;;10.07;8.97;;;;;;;8.69;48.88;94612.56;4968856;28;20220;-61
2022/04/05 08:16:39;;;;;;;14.60;9.63;;;;;;;8.59;49.40;94613.44;4961785;28;20205;-62
2022/04/05 08:19:05;;;;;;;10.93;9.73;;;;;;;8.75;49.20;94604.06;4958676;28;20336;-62
2022/04/05 08:21:31;;;;;;;12.20;9.13;;;;;;;8.87;48.44;94610.72;4963515;28;20232;-61
2022/04/05 08:23:57;;;;;;;10.23;9.07;;;;;;;8.87;48.05;94608.09;4964300;28;20236;-62
2022/04/05 08:26:22;;;;;;;10.57;8.33;;;;;;;8.84;48.30;94606.59;4956272;28;20244;-62
2022/04/05 08:28:48;;;;;;;11.07;8.40;;;;;;;8.80;47.91;94600.03;4958337;28;20227;-63
2022/04/05 08:31:16;;;;;;;10.87;8.10;;;;;;;8.92;47.95;94592.72;4965959;28;20327;-63
2022/04/05 08:33:42;;;;;;;8.50;6.87;;;;;;;9.12;46.47;94597.81;4959880;28;20239;-63
2022/04/05 08:36:07;;;;;;;9.73;7.07;;;;;;;9.12;46.07;94590.78;4961334;28;20224;-63
2022/04/05 08:38:33;;;;;;;9.63;6.50;;;;;;;9.12;46.14;94597.81;4962885;28;20227;-63
2022/04/05 08:41:03;;;;;;;7.77;6.83;;;;;;;9.13;46.07;94589.78;4955793;28;20533;-63
2022/04/05 08:43:29;;;;;;;8.10;6.63;;;;;;;9.35;45.17;94585.00;4958318;28;20220;-64
2022/04/05 08:46:00;;;;;;;8.03;7.17;;;;;;;9.34;45.32;94584.19;4957767;28;20603;-65
2022/04/05 08:48:27;;;;;;;10.83;7.20;;;;;;;9.42;45.57;94580.78;4965518;28;20359;-65
2022/04/05 08:50:55;;;;;;;7.27;6.53;;;;;;;9.40;45.57;94577.50;4962109;28;20224;-64
2022/04/05 08:53:21;;;;;;;8.43;7.03;;;;;;;9.51;45.59;94574.59;4955945;28;20212;-65
2022/04/05 08:55:48;;;;;;;7.70;6.80;;;;;;;9.71;44.87;94577.81;4955355;28;20208;-64
2022/04/05 08:58:14;;;;;;;11.37;6.80;;;;;;;9.74;44.86;94568.81;4960661;28;20234;-64
2022/04/05 09:00:40;;;;;;;8.50;6.47;;;;;;;9.84;43.86;94564.28;4956449;28;20234;-63
2022/04/05 09:03:06;;;;;;;10.80;6.57;;;;;;;9.86;43.67;94560.50;4960858;28;20599;-63
2022/04/05 09:05:40;;;;;;;8.40;6.57;;;;;;;9.98;43.02;94555.78;4958209;28;20235;-64
2022/04/05 09:08:16;;;;;;;8.40;5.97;;;;;;;9.93;42.51;94558.88;4965084;28;20204;-63
2022/04/05 09:10:42;;;;;;;8.00;5.73;;;;;;;10.08;41.52;94561.72;4956014;28;20252;-63
2022/04/05 09:13:12;;;;;;;8.80;4.90;;;;;;;10.12;39.69;94549.88;4955380;28;20224;-63
2022/04/05 09:15:40;;;;;;;8.50;5.70;;;;;;;10.26;39.58;94551.06;4987614;28;20243;-62
2022/04/05 09:18:06;;;;;;;7.83;5.83;;;;;;;10.17;40.24;94554.66;4951662;28;20224;-63
2022/04/05 09:20:44;;;;;;;6.83;5.87;;;;;;;10.33;39.99;94543.41;4958382;28;20282;-62
2022/04/05 09:23:22;;;;;;;12.50;8.17;;;;;;;10.78;39.46;94534.25;4957329;28;20246;-65
2022/04/05 09:26:02;;;;;;;8.33;4.80;;;;;;;10.87;36.47;94532.44;4954663;28;20237;-67
2022/04/05 09:28:30;;;;;;;6.63;4.53;;;;;;;10.94;36.81;94534.22;4959765;28;20228;-66
2022/04/05 09:31:01;;;;;;;5.90;4.40;;;;;;;11.32;36.51;94536.31;4956858;28;20231;-65
2022/04/05 09:33:32;;;;;;;6.83;3.73;;;;;;;11.32;32.50;94525.78;4968033;28;20220;-64
2022/04/05 09:36:07;;;;;;;6.07;4.17;;;;;;;11.60;33.97;94531.44;4959599;28;20236;-64
2022/04/05 09:38:33;;;;;;;3.77;3.03;;;;;;;11.61;32.04;94531.28;4962915;28;20239;-65
2022/04/05 09:41:11;;;;;;;4.13;3.40;;;;;;;11.61;30.28;94525.22;4956674;28;20210;-64
2022/04/05 09:43:37;;;;;;;5.00;3.83;;;;;;;11.53;31.35;94522.63;4987820;28;20544;-64
2022/04/05 09:46:04;;;;;;;4.87;3.23;;;;;;;11.76;32.48;94526.16;4965300;28;20243;-63
2022/04/05 09:48:35;;;;;;;5.33;4.20;;;;;;;11.95;33.03;94514.41;4956824;28;20223;-63
2022/04/05 09:51:12;;;;;;;5.67;4.20;;;;;;;11.95;33.23;94516.19;4956489;28;20237;-64
2022/04/05 09:53:47;;;;;;;6.83;4.17;;;;;;;11.98;32.99;94506.16;4989371;28;20240;-65
2022/04/05 09:56:22;;;;;;;7.63;4.10;;;;;;;12.08;33.41;94512.03;4963053;28;20207;-66
2022/04/05 09:58:50;;;;;;;1032.67;97.20;;;;;;;12.12;32.60;94512.50;4954373;28;20231;-64
2022/04/05 10:01:18;;;;;;;49.63;8.07;;;;;;;12.09;32.60;94500.50;4952562;28;20243;-63
2022/04/05 10:04:01;;;;;;;18.93;5.83;;;;;;;12.28;32.87;94493.13;4951180;28;20251;-63
2022/04/05 10:06:30;;;;;;;109.60;11.73;;;;;;;12.36;32.79;94491.25;4954242;28;20235;-63
2022/04/05 10:08:55;;;;;;;15.85;5.50;;;;;;;12.39;33.31;94491.91;4960204;28;20231;-63
2022/04/05 10:11:26;;;;;;;13.65;5.03;;;;;;;12.52;33.58;94489.50;4939237;28;20212;-64
2022/04/05 10:13:55;;;;;;;4.30;3.90;;;;;;;12.48;31.39;94483.78;4974361;28;20212;-64
2022/04/05 10:16:25;;;;;;;5.20;3.88;;;;;;;12.46;32.93;94482.31;4963149;28;20236;-64
2022/04/05 10:18:52;;;;;;;7.40;3.55;;;;;;;12.61;33.48;94477.88;4964358;28;20266;-63
2022/04/05 10:21:20;;;;;;;5.72;4.50;;;;;;;12.93;32.93;94474.13;4964408;28;20235;-65
2022/04/05 10:23:47;;;;;;;5.17;4.17;;;;;;;12.94;33.48;94467.88;4988374;28;20235;-65
2022/04/05 10:26:18;;;;;;;4.68;4.28;;;;;;;13.08;33.57;94476.81;4957757;28;20249;-64
2022/04/05 10:28:48;;;;;;;5.17;4.10;;;;;;;13.03;33.27;94469.41;4962638;28;20270;-63
2022/04/05 10:31:57;;;;;;;7.18;4.47;;;;;;;13.01;32.07;94465.31;4960800;28;20220;-62
2022/04/05 10:34:41;;;;;;;4.95;3.47;;;;;;;13.49;33.18;94465.81;4942338;28;20230;-64
2022/04/05 10:37:18;;;;;;;4.38;3.83;;;;;;;13.74;30.57;94458.44;4940596;28;20323;-61
2022/04/05 10:40:10;;;;;;;5.60;4.10;;;;;;;13.88;31.37;94454.94;4945692;28;20234;-66
2022/04/05 10:42:36;;;;;;;6.80;4.10;;;;;;;14.10;31.87;94449.69;4937631;28;20303;-64
2022/04/05 10:45:23;;;;;;;5.25;4.03;;;;;;;14.17;30.85;94444.50;4962461;28;20232;-64
2022/04/05 10:48:18;;;;;;;5.07;4.30;;;;;;;14.21;31.22;94441.25;4944222;28;20412;-64
2022/04/05 10:51:09;;;;;;;4.47;4.05;;;;;;;14.15;30.54;94436.72;4954954;28;20223;-66
2022/04/05 10:54:17;;;;;;;8.57;3.85;;;;;;;14.22;31.11;94439.44;4938807;28;20228;-61
2022/04/05 10:56:29;;;;;;;5.20;3.92;;;;;;;14.35;30.07;94426.34;4963683;28;20252;-65
2022/04/05 10:58:54;;;;;;;7.00;3.85;;;;;;;14.33;29.94;94428.38;4946640;28;20219;-65
2022/04/05 11:01:22;;;;;;;6.30;4.10;;;;;;;14.56;30.27;94418.41;4945455;28;20236;-66
2022/04/05 11:04:09;;;;;;;4.88;3.90;;;;;;;14.78;29.26;94424.53;4949696;28;20233;-63
2022/04/05 11:07:07;;;;;;;4.20;3.80;;;;;;;15.05;29.54;94419.41;4947997;28;20227;-63
2022/04/05 11:09:41;;;;;;;6.67;3.93;;;;;;;15.11;28.82;94415.16;4871012;29;20235;-63
2022/04/05 11:12:12;;;;;;;4.20;3.80;;;;;;;15.28;27.89;94405.88;4900916;29;20234;-64
2022/04/05 11:14:41;;;;;;;5.47;3.67;;;;;;;15.39;28.41;94402.69;4860716;29;20643;-64
2022/04/05 11:17:09;;;;;;;7.22;3.65;;;;;;;15.55;28.14;94392.78;4902021;29;20210;-64
2022/04/05 11:19:41;;;;;;;4.63;3.67;;;;;;;15.64;27.77;94395.06;4864777;29;20230;-66
2022/04/05 11:22:31;;;;;;;4.93;3.80;;;;;;;15.79;27.71;94386.16;4889466;29;20596;-66
2022/04/05 11:25:06;;;;;;;7.90;4.10;;;;;;;15.76;27.79;94387.38;4926528;29;20249;-62
2022/04/05 11:27:45;;;;;;;7.45;4.32;;;;;;;15.94;28.28;94383.38;4909863;29;20225;-68
2022/04/05 11:30:22;;;;;;;6.07;3.47;;;;;;;15.61;27.16;94384.03;4924541;29;20236;-66
2022/04/05 11:33:09;;;;;;;7.60;4.30;;;;;;;15.88;27.87;94379.69;4906550;29;20233;-66
2022/04/05 11:35:39;;;;;;;6.80;4.05;;;;;;;15.80;25.83;94369.25;4925889;29;20594;-65
2022/04/05 11:38:11;;;;;;;7.15;4.43;;;;;;;15.77;27.33;94369.63;4908252;29;20297;-68